Time;durP1;ratioP1;P1;durP2;ratioP2;P2;SDS_P1;SDS_P2;PMS_P1;PMS_P2;Temp;Humidity;BMP_temperature;BMP_pressure;BME280_temperature;BME280_humidity;BME280_pressure;Samples;Min_cycle;Max_cycle;Signal;HPM_P1;HPM_P2
2022/10/27 00:00:10;;;;;;;0.60;0.60;;;;;;;16.41;100.00;101068.81;5075956;28;20201;-70
2022/10/27 00:02:36;;;;;;;0.60;0.60;;;;;;;16.22;100.00;101079.16;5076984;28;20700;-69
2022/10/27 00:05:03;;;;;;;0.60;0.60;;;;;;;16.10;100.00;101073.78;5076230;28;20202;-70
2022/10/27 00:07:30;;;;;;;0.60;0.60;;;;;;;15.96;100.00;101049.25;5078338;28;20206;-69
2022/10/27 00:09:57;;;;;;;0.60;0.60;;;;;;;16.06;100.00;101069.41;5077291;28;20226;-70
2022/10/27 00:12:24;;;;;;;0.70;0.70;;;;;;;15.98;100.00;101068.44;5077475;28;20206;-69
2022/10/27 00:14:50;;;;;;;0.60;0.60;;;;;;;15.79;100.00;101061.31;5074359;28;20662;-69
2022/10/27 00:17:19;;;;;;;0.57;0.57;;;;;;;15.80;100.00;101050.00;5075639;28;20210;-69
2022/10/27 00:19:45;;;;;;;0.70;0.70;;;;;;;15.84;100.00;101080.53;5076233;28;20195;-69
2022/10/27 00:22:12;;;;;;;0.80;0.80;;;;;;;15.82;100.00;101077.03;5074231;28;20232;-69
2022/10/27 00:24:39;;;;;;;0.70;0.70;;;;;;;15.76;100.00;101056.06;5078594;28;20583;-69
2022/10/27 00:27:07;;;;;;;0.60;0.60;;;;;;;15.80;100.00;101079.63;5072970;28;20190;-69
2022/10/27 00:29:34;;;;;;;0.60;0.60;;;;;;;15.65;100.00;101068.16;5074571;28;22090;-68
2022/10/27 00:32:01;;;;;;;0.60;0.60;;;;;;;15.65;100.00;101073.38;5070531;28;20631;-69
2022/10/27 00:34:29;;;;;;;0.50;0.50;;;;;;;15.84;100.00;101085.75;5039575;28;20217;-69
2022/10/27 00:36:55;;;;;;;0.68;0.68;;;;;;;15.70;100.00;101088.25;5074164;28;20199;-69
2022/10/27 00:39:22;;;;;;;0.60;0.60;;;;;;;15.65;100.00;101089.06;5074331;28;20198;-69
2022/10/27 00:41:49;;;;;;;0.70;0.70;;;;;;;15.50;100.00;101091.50;5073401;28;20698;-69
2022/10/27 00:44:32;;;;;;;0.80;0.80;;;;;;;15.62;100.00;101086.44;5079666;28;20202;-69
2022/10/27 00:47:05;;;;;;;0.70;0.70;;;;;;;15.47;100.00;101079.25;5075361;28;20746;-69
2022/10/27 00:49:38;;;;;;;0.70;0.70;;;;;;;15.43;100.00;101084.44;5074003;28;20280;-69
2022/10/27 00:52:08;;;;;;;0.80;0.80;;;;;;;15.26;100.00;101069.44;5052787;28;20206;-69
2022/10/27 00:54:40;;;;;;;2.95;1.13;;;;;;;15.33;100.00;101070.38;5072446;28;20248;-69
2022/10/27 00:57:08;;;;;;;1.05;1.05;;;;;;;15.07;100.00;101036.09;5074326;28;20217;-69
2022/10/27 00:59:37;;;;;;;0.60;0.60;;;;;;;15.38;100.00;101074.78;5070704;28;20202;-69
2022/10/27 01:02:05;;;;;;;0.60;0.60;;;;;;;15.36;100.00;101070.41;5075521;28;20190;-69
2022/10/27 01:04:40;;;;;;;0.70;0.70;;;;;;;15.33;100.00;101063.44;5072931;28;20678;-69
2022/10/27 01:07:07;;;;;;;0.70;0.70;;;;;;;15.26;100.00;101074.66;5074064;28;20193;-69
2022/10/27 01:09:34;;;;;;;0.70;0.70;;;;;;;15.09;100.00;101055.28;5073957;28;20218;-69
2022/10/27 01:12:00;;;;;;;0.68;0.68;;;;;;;15.15;100.00;101084.09;5073019;28;20198;-68
2022/10/27 01:14:28;;;;;;;0.60;0.60;;;;;;;15.15;100.00;101084.09;5079408;28;20190;-70
2022/10/27 01:17:07;;;;;;;0.60;0.60;;;;;;;15.16;100.00;101080.63;5072984;28;20206;-70
2022/10/27 01:20:06;;;;;;;0.60;0.60;;;;;;;15.07;100.00;101059.63;5068985;28;20313;-69
2022/10/27 01:22:39;;;;;;;0.70;0.70;;;;;;;15.20;100.00;101079.78;5075276;28;20595;-69
2022/10/27 01:25:29;;;;;;;0.65;0.65;;;;;;;15.31;100.00;101093.88;5073643;28;20206;-69
2022/10/27 01:28:25;;;;;;;0.60;0.60;;;;;;;15.26;100.00;101092.06;5075743;28;20624;-69
2022/10/27 01:31:07;;;;;;;0.60;0.60;;;;;;;15.25;100.00;101090.31;5074739;28;20512;-69
2022/10/27 01:33:42;;;;;;;0.60;0.60;;;;;;;15.25;100.00;101098.16;5041748;28;20201;-69
2022/10/27 01:36:17;;;;;;;0.70;0.70;;;;;;;15.32;100.00;101098.25;5069984;28;20213;-69
2022/10/27 01:38:52;;;;;;;0.65;0.65;;;;;;;15.20;100.00;101079.78;5074943;28;20216;-69
2022/10/27 01:41:24;;;;;;;0.60;0.60;;;;;;;15.34;100.00;101109.59;5072111;28;20206;-69
2022/10/27 01:43:55;;;;;;;0.60;0.60;;;;;;;15.27;100.00;101107.75;5077676;28;20318;-69
2022/10/27 01:46:23;;;;;;;0.60;0.60;;;;;;;15.30;100.00;101112.16;5074446;28;20194;-69
2022/10/27 01:48:50;;;;;;;0.60;0.60;;;;;;;15.24;100.00;101112.94;5074976;28;20230;-68
2022/10/27 01:51:16;;;;;;;0.55;0.55;;;;;;;15.17;100.00;101090.22;5071043;28;20230;-69
2022/10/27 01:53:46;;;;;;;0.60;0.60;;;;;;;14.87;100.00;101027.16;5070678;28;20217;-71
2022/10/27 01:56:35;;;;;;;0.95;0.95;;;;;;;15.45;100.00;101112.31;5074402;28;20198;-69
2022/10/27 01:59:18;;;;;;;0.60;0.60;;;;;;;15.24;100.00;101078.97;5074951;28;20213;-70
2022/10/27 02:01:59;;;;;;;0.63;0.63;;;;;;;15.45;100.00;101116.66;5073201;28;20611;-69
2022/10/27 02:04:34;;;;;;;0.60;0.60;;;;;;;15.29;100.00;101090.38;5072710;28;20210;-69
2022/10/27 02:07:07;;;;;;;0.52;0.52;;;;;;;15.45;100.00;101117.56;5073334;28;20598;-69
2022/10/27 02:09:42;;;;;;;0.60;0.60;;;;;;;15.46;100.00;101107.97;5065850;28;20692;-69
2022/10/27 02:12:15;;;;;;;0.60;0.60;;;;;;;15.30;100.00;101063.38;5071063;28;20197;-69
2022/10/27 02:14:43;;;;;;;0.52;0.52;;;;;;;15.51;100.00;101116.78;5074076;28;20205;-69
2022/10/27 02:17:13;;;;;;;0.50;0.50;;;;;;;15.58;100.00;101119.50;5076451;28;20209;-69
2022/10/27 02:19:44;;;;;;;0.52;0.52;;;;;;;15.60;100.00;101124.72;5071608;28;20684;-69
2022/10/27 02:22:12;;;;;;;0.60;0.60;;;;;;;15.65;100.00;101117.81;5074633;28;20194;-69
2022/10/27 02:24:39;;;;;;;0.60;0.60;;;;;;;15.63;100.00;101124.75;5073071;28;20229;-70
2022/10/27 02:27:13;;;;;;;0.75;0.75;;;;;;;15.70;100.00;101127.47;5072452;28;20203;-70
2022/10/27 02:29:44;;;;;;;0.60;0.60;;;;;;;15.73;100.00;101130.09;5071599;28;20218;-69
2022/10/27 02:32:15;;;;;;;0.70;0.70;;;;;;;15.73;100.00;101131.88;5072160;28;21769;-69
2022/10/27 02:34:44;;;;;;;0.70;0.70;;;;;;;15.80;100.00;101146.75;5073219;28;20263;-70
2022/10/27 02:37:18;;;;;;;0.50;0.50;;;;;;;15.85;100.00;101138.09;5039586;28;20198;-70
2022/10/27 02:39:45;;;;;;;0.60;0.60;;;;;;;15.70;100.00;101129.19;5034292;28;20210;-69
2022/10/27 02:42:11;;;;;;;0.60;0.60;;;;;;;15.80;100.00;101141.53;5077307;28;20190;-69
2022/10/27 02:44:38;;;;;;;0.60;0.60;;;;;;;15.82;100.00;101147.66;5040030;28;20194;-69
2022/10/27 02:47:05;;;;;;;0.70;0.70;;;;;;;15.84;100.00;101145.91;5042406;28;20202;-69
2022/10/27 02:49:33;;;;;;;0.60;0.60;;;;;;;15.87;100.00;101132.91;5061257;28;20223;-70
2022/10/27 02:52:03;;;;;;;0.60;0.60;;;;;;;15.92;100.00;101146.88;5082736;28;20195;-69
2022/10/27 02:54:30;;;;;;;0.70;0.70;;;;;;;15.90;100.00;101159.06;5038672;28;20615;-69
2022/10/27 02:56:57;;;;;;;0.60;0.60;;;;;;;15.93;100.00;101153.00;5074405;28;20199;-69
2022/10/27 02:59:23;;;;;;;0.60;0.60;;;;;;;15.92;100.00;101162.56;5074180;28;20191;-69
2022/10/27 03:01:50;;;;;;;0.60;0.60;;;;;;;15.94;100.00;101165.22;5074188;28;20589;-70
2022/10/27 03:04:17;;;;;;;0.60;0.60;;;;;;;15.90;100.00;101156.47;5076868;28;20203;-70
2022/10/27 03:06:45;;;;;;;0.70;0.70;;;;;;;15.89;100.00;101159.94;5079865;28;20202;-69
2022/10/27 03:09:12;;;;;;;0.60;0.60;;;;;;;15.68;100.00;101144.00;5042789;28;20975;-70
2022/10/27 03:11:39;;;;;;;0.60;0.60;;;;;;;15.73;100.00;101163.25;5082238;28;20198;-70
2022/10/27 03:14:06;;;;;;;0.60;0.60;;;;;;;15.42;100.00;101137.53;5076552;28;20260;-70
2022/10/27 03:16:32;;;;;;;0.60;0.60;;;;;;;15.51;100.00;101174.31;5074619;28;20202;-71
2022/10/27 03:18:59;;;;;;;0.60;0.60;;;;;;;15.20;100.00;101166.03;5076228;28;20636;-69
2022/10/27 03:21:26;;;;;;;0.80;0.80;;;;;;;14.94;100.00;101175.25;5047695;28;20194;-69
2022/10/27 03:23:54;;;;;;;0.60;0.60;;;;;;;14.97;100.00;101180.50;5056043;28;20198;-69
2022/10/27 03:26:21;;;;;;;0.80;0.80;;;;;;;14.21;100.00;101084.44;5073323;28;21299;-69
2022/10/27 03:28:48;;;;;;;0.77;0.77;;;;;;;14.76;100.00;101185.41;5076873;28;20201;-69
2022/10/27 03:31:14;;;;;;;0.82;0.82;;;;;;;14.70;100.00;101188.78;5076169;28;20199;-69
2022/10/27 03:33:41;;;;;;;0.60;0.60;;;;;;;14.60;100.00;101193.81;5076816;28;20223;-69
2022/10/27 03:36:10;;;;;;;0.68;0.68;;;;;;;14.42;100.00;101188.28;5076645;28;20764;-69
2022/10/27 03:38:37;;;;;;;0.60;0.60;;;;;;;14.29;100.00;101197.63;5074644;28;20199;-69
2022/10/27 03:41:05;;;;;;;0.70;0.70;;;;;;;14.24;100.00;101192.31;5076615;28;20195;-69
2022/10/27 03:43:32;;;;;;;0.82;0.82;;;;;;;13.93;100.00;101166.53;5079156;28;20556;-69
2022/10/27 03:45:59;;;;;;;0.70;0.70;;;;;;;14.00;100.00;101202.31;5072813;28;20207;-70
2022/10/27 03:48:26;;;;;;;0.73;0.73;;;;;;;13.96;100.00;101197.88;5041397;28;20198;-69
2022/10/27 03:50:52;;;;;;;1.77;1.67;;;;;;;13.89;100.00;101188.19;5076791;28;20234;-68
2022/10/27 03:53:20;;;;;;;0.60;0.60;;;;;;;13.79;100.00;101173.22;5073787;28;20214;-69
2022/10/27 03:55:48;;;;;;;0.80;0.80;;;;;;;13.96;100.00;101203.09;5018716;28;20222;-68
2022/10/27 03:58:18;;;;;;;0.70;0.70;;;;;;;13.44;100.00;101109.09;5074797;28;20190;-69
2022/10/27 04:00:45;;;;;;;0.80;0.80;;;;;;;13.85;100.00;101200.28;5074883;28;20209;-69
2022/10/27 04:03:12;;;;;;;0.80;0.80;;;;;;;13.80;100.00;101201.94;5037836;28;20206;-69
2022/10/27 04:05:39;;;;;;;0.80;0.80;;;;;;;13.65;100.00;101182.50;5074307;28;20194;-69
2022/10/27 04:08:06;;;;;;;0.63;0.63;;;;;;;13.48;100.00;101152.63;5075562;28;20206;-69
2022/10/27 04:10:33;;;;;;;0.88;0.88;;;;;;;13.73;100.00;101197.41;5074020;28;20230;-70
2022/10/27 04:13:00;;;;;;;0.70;0.70;;;;;;;13.61;100.00;101171.13;5076278;28;20217;-69
2022/10/27 04:15:28;;;;;;;0.70;0.70;;;;;;;13.86;100.00;101201.16;5077383;28;20685;-69
2022/10/27 04:17:56;;;;;;;0.70;0.70;;;;;;;13.87;100.00;101202.94;5076300;28;20202;-69
2022/10/27 04:20:24;;;;;;;0.60;0.60;;;;;;;13.81;100.00;101208.00;5074923;28;20217;-69
2022/10/27 04:22:50;;;;;;;1.02;1.02;;;;;;;13.76;100.00;101205.31;5075880;28;20199;-69
2022/10/27 04:25:17;;;;;;;0.70;0.70;;;;;;;13.82;100.00;101199.34;5073895;28;20190;-69
2022/10/27 04:27:44;;;;;;;0.60;0.60;;;;;;;13.76;100.00;101199.22;5073962;28;20206;-69
2022/10/27 04:30:12;;;;;;;0.60;0.60;;;;;;;13.81;100.00;101205.38;5039065;28;20221;-69
2022/10/27 04:32:40;;;;;;;0.80;0.80;;;;;;;13.85;100.00;101204.59;5053047;28;20220;-69
2022/10/27 04:35:07;;;;;;;0.68;0.68;;;;;;;13.76;100.00;101183.59;5074346;28;20260;-68
2022/10/27 04:37:34;;;;;;;0.70;0.70;;;;;;;13.83;100.00;101211.53;5071213;28;20670;-68
2022/10/27 04:40:01;;;;;;;0.80;0.80;;;;;;;13.87;100.00;101213.34;5070541;28;20217;-69
2022/10/27 04:42:28;;;;;;;0.80;0.80;;;;;;;13.82;100.00;101210.66;5070688;28;20210;-69
2022/10/27 04:44:55;;;;;;;0.60;0.60;;;;;;;13.86;100.00;101228.13;5071851;28;20210;-68
2022/10/27 04:47:21;;;;;;;0.60;0.60;;;;;;;13.89;100.00;101228.16;5074488;28;20202;-69
2022/10/27 04:49:49;;;;;;;0.70;0.70;;;;;;;14.07;100.00;101238.09;5076610;28;20254;-69
2022/10/27 04:52:16;;;;;;;0.57;0.57;;;;;;;13.76;100.00;101204.44;5074295;28;20722;-69
2022/10/27 04:54:43;;;;;;;0.70;0.70;;;;;;;14.04;100.00;101248.47;5072848;28;20210;-70
2022/10/27 04:57:10;;;;;;;0.60;0.60;;;;;;;14.04;100.00;101243.25;5074225;28;20199;-71
2022/10/27 04:59:37;;;;;;;0.70;0.70;;;;;;;14.11;100.00;101246.84;5075252;28;20209;-72
2022/10/27 05:02:04;;;;;;;0.80;0.80;;;;;;;14.31;100.00;101238.53;5073394;28;20199;-70
2022/10/27 05:04:30;;;;;;;0.70;0.70;;;;;;;14.31;100.00;101243.75;5073819;28;20202;-68
2022/10/27 05:06:58;;;;;;;1.35;1.35;;;;;;;14.52;100.00;101263.31;5069254;28;20210;-69
2022/10/27 05:09:25;;;;;;;0.63;0.63;;;;;;;14.32;100.00;101255.97;5077256;28;20199;-68
2022/10/27 05:11:52;;;;;;;0.65;0.65;;;;;;;14.33;100.00;101260.34;5073614;28;20201;-68
2022/10/27 05:14:19;;;;;;;0.60;0.60;;;;;;;14.27;100.00;101265.41;5075576;28;20206;-68
2022/10/27 05:16:46;;;;;;;0.60;0.60;;;;;;;14.24;100.00;101257.53;5078878;28;20198;-71
2022/10/27 05:19:12;;;;;;;0.70;0.70;;;;;;;14.20;100.00;101247.88;5050335;28;20203;-68
2022/10/27 05:21:39;;;;;;;1.35;1.25;;;;;;;14.29;100.00;101271.56;5051145;28;20207;-68
2022/10/27 05:24:08;;;;;;;3.22;0.98;;;;;;;14.30;100.00;101257.63;5070930;28;20206;-68
2022/10/27 05:26:34;;;;;;;0.60;0.60;;;;;;;14.36;100.00;101276.06;5075360;28;20203;-69
2022/10/27 05:29:01;;;;;;;0.60;0.60;;;;;;;14.38;100.00;101287.41;5051637;28;20198;-71
2022/10/27 05:31:28;;;;;;;0.60;0.60;;;;;;;14.24;100.00;101281.00;5059453;28;20219;-71
2022/10/27 05:33:55;;;;;;;0.63;0.63;;;;;;;14.11;100.00;101297.28;5062388;28;20254;-72
2022/10/27 05:36:22;;;;;;;0.70;0.70;;;;;;;13.98;100.00;101297.91;5051238;28;20207;-72
2022/10/27 05:38:48;;;;;;;0.60;0.60;;;;;;;14.15;100.00;101304.31;5062407;28;20210;-76
2022/10/27 05:41:17;;;;;;;0.70;0.70;;;;;;;14.46;100.00;101310.16;5069987;28;20575;-72
2022/10/27 05:43:44;;;;;;;0.80;0.80;;;;;;;14.38;100.00;101316.09;5068994;28;20710;-72
2022/10/27 05:46:11;;;;;;;0.57;0.57;;;;;;;14.35;100.00;101328.22;5055330;28;20825;-71
2022/10/27 05:48:37;;;;;;;1.85;1.65;;;;;;;14.33;100.00;101314.25;5056253;28;20243;-72
2022/10/27 05:51:04;;;;;;;0.70;0.70;;;;;;;14.54;100.00;101334.69;5020020;28;20250;-73
2022/10/27 05:53:31;;;;;;;0.70;0.70;;;;;;;14.34;100.00;101322.13;5051029;28;20195;-72
2022/10/27 05:55:58;;;;;;;0.80;0.80;;;;;;;14.41;100.00;101324.88;5061405;28;20219;-71
2022/10/27 05:58:26;;;;;;;0.70;0.70;;;;;;;14.58;100.00;101316.50;5069696;28;20195;-71
2022/10/27 06:00:53;;;;;;;0.70;0.70;;;;;;;14.52;100.00;101325.94;5049588;28;20214;-71
2022/10/27 06:03:21;;;;;;;0.80;0.80;;;;;;;14.58;100.00;101311.28;5064103;28;20217;-76
2022/10/27 06:05:48;;;;;;;0.60;0.60;;;;;;;14.81;100.00;101340.41;5047986;28;20215;-73
2022/10/27 06:08:15;;;;;;;0.60;0.60;;;;;;;14.65;100.00;101318.38;5062700;28;20218;-73
2022/10/27 06:10:42;;;;;;;0.73;0.73;;;;;;;14.76;100.00;101353.41;5025029;28;20226;-73
2022/10/27 06:13:12;;;;;;;0.60;0.60;;;;;;;14.80;100.00;101359.56;5040457;28;20643;-73
2022/10/27 06:15:40;;;;;;;0.70;0.70;;;;;;;14.71;100.00;101356.75;5062920;28;20293;-72
2022/10/27 06:18:07;;;;;;;0.77;0.77;;;;;;;14.49;100.00;101357.19;5059225;28;20619;-73
2022/10/27 06:20:34;;;;;;;0.73;0.73;;;;;;;14.37;100.00;101352.63;5065808;28;20671;-73
2022/10/27 06:23:01;;;;;;;0.60;0.60;;;;;;;14.32;100.00;101356.84;5065692;28;20199;-73
2022/10/27 06:25:28;;;;;;;0.60;0.60;;;;;;;14.36;100.00;101345.66;5059672;28;20214;-72
2022/10/27 06:27:55;;;;;;;0.90;0.90;;;;;;;14.42;100.00;101358.81;5064888;28;20210;-73
2022/10/27 06:30:21;;;;;;;0.80;0.80;;;;;;;14.62;100.00;101370.53;5065256;28;20731;-73
2022/10/27 06:32:49;;;;;;;0.85;0.85;;;;;;;14.67;100.00;101363.66;5055627;28;20198;-73
2022/10/27 06:35:17;;;;;;;0.70;0.70;;;;;;;14.41;100.00;101350.97;5058685;28;20211;-74
2022/10/27 06:37:45;;;;;;;1.02;1.02;;;;;;;14.79;100.00;101368.22;5066933;28;20206;-71
2022/10/27 06:40:13;;;;;;;0.60;0.60;;;;;;;14.80;100.00;101372.59;5066890;28;20289;-71
2022/10/27 06:42:41;;;;;;;0.60;0.60;;;;;;;15.50;100.00;101345.06;5053075;28;20207;-74
2022/10/27 06:45:09;;;;;;;0.70;0.70;;;;;;;15.83;100.00;101354.31;5048117;28;20199;-72
2022/10/27 06:47:35;;;;;;;1.08;1.08;;;;;;;15.72;100.00;101386.38;5058392;28;20663;-72
2022/10/27 06:50:05;;;;;;;0.70;0.70;;;;;;;15.67;100.00;101385.41;5069598;28;20257;-72
2022/10/27 06:52:35;;;;;;;0.80;0.80;;;;;;;15.64;100.00;101361.84;5050480;28;20202;-72
2022/10/27 06:55:02;;;;;;;0.93;0.93;;;;;;;15.46;100.00;101372.88;5059270;28;20699;-72
2022/10/27 06:57:29;;;;;;;0.80;0.80;;;;;;;15.37;100.00;101391.88;5049586;28;20215;-72
2022/10/27 06:59:56;;;;;;;0.88;0.88;;;;;;;15.29;100.00;101385.66;5057959;28;20206;-73
2022/10/27 07:02:25;;;;;;;0.80;0.80;;;;;;;15.63;100.00;101391.44;5069586;28;20653;-72
2022/10/27 07:04:51;;;;;;;0.60;0.60;;;;;;;15.81;100.00;101404.81;5069621;28;20199;-72
2022/10/27 07:07:19;;;;;;;1.00;1.00;;;;;;;16.01;100.00;101408.63;5069586;28;20224;-72
2022/10/27 07:09:46;;;;;;;0.80;0.80;;;;;;;16.00;100.00;101417.31;5069498;28;20210;-72
2022/10/27 07:12:13;;;;;;;1.00;1.00;;;;;;;15.77;100.00;101410.84;5069654;28;20203;-72
2022/10/27 07:14:40;;;;;;;0.70;0.70;;;;;;;15.81;100.00;101410.94;5069983;28;20194;-72
2022/10/27 07:17:06;;;;;;;0.80;0.80;;;;;;;15.78;100.00;101381.22;5069797;28;20198;-72
2022/10/27 07:19:33;;;;;;;0.60;0.60;;;;;;;15.71;100.00;101406.41;5069670;28;20199;-72
2022/10/27 07:22:00;;;;;;;2.60;1.02;;;;;;;15.78;100.00;101410.00;5069500;28;20218;-72
2022/10/27 07:24:28;;;;;;;0.80;0.80;;;;;;;16.03;100.00;101406.88;5069321;28;20199;-72
2022/10/27 07:26:55;;;;;;;0.75;0.75;;;;;;;15.57;100.00;101360.88;5069145;28;20210;-72
2022/10/27 07:29:22;;;;;;;0.60;0.60;;;;;;;16.05;100.00;101415.63;5072934;28;20698;-72
2022/10/27 07:31:48;;;;;;;2.20;0.90;;;;;;;16.27;100.00;101419.41;5073234;28;20650;-72
2022/10/27 07:34:15;;;;;;;0.60;0.60;;;;;;;16.43;100.00;101407.41;5073142;28;20203;-72
2022/10/27 07:36:42;;;;;;;0.60;0.60;;;;;;;16.57;96.95;101418.97;5072884;28;20226;-73
2022/10/27 07:39:09;;;;;;;0.82;0.82;;;;;;;16.53;95.20;101402.31;5072663;28;21075;-72
2022/10/27 07:41:37;;;;;;;1.15;1.15;;;;;;;16.85;94.56;101423.66;5072464;28;20213;-72
2022/10/27 07:44:04;;;;;;;1.02;1.02;;;;;;;16.86;93.66;101420.19;5072764;28;20203;-72
2022/10/27 07:46:31;;;;;;;1.05;1.05;;;;;;;17.00;92.18;101434.31;5072628;28;20209;-73
2022/10/27 07:48:57;;;;;;;0.70;0.70;;;;;;;16.88;91.65;101433.28;5072550;28;20210;-72
2022/10/27 07:51:24;;;;;;;0.80;0.80;;;;;;;16.93;92.18;101434.22;5072631;28;20230;-73
2022/10/27 07:53:51;;;;;;;0.70;0.70;;;;;;;16.99;91.81;101426.41;5072397;28;20199;-72
2022/10/27 07:56:18;;;;;;;0.60;0.60;;;;;;;16.91;92.14;101401.91;5072221;28;20210;-72
2022/10/27 07:58:49;;;;;;;0.60;0.60;;;;;;;17.00;90.87;101392.38;5072164;28;20217;-72
2022/10/27 08:01:16;;;;;;;0.60;0.60;;;;;;;17.23;89.80;101424.03;5072482;28;20623;-72
2022/10/27 08:03:43;;;;;;;0.77;0.77;;;;;;;17.21;89.05;101436.25;5072312;28;20221;-72
2022/10/27 08:06:10;;;;;;;0.70;0.70;;;;;;;16.89;87.06;101370.44;5072200;28;20203;-72
2022/10/27 08:08:36;;;;;;;0.60;0.60;;;;;;;17.56;87.67;101444.44;5072082;28;20198;-72
2022/10/27 08:11:03;;;;;;;0.68;0.68;;;;;;;17.69;87.75;101438.47;5072292;28;20672;-72
2022/10/27 08:13:30;;;;;;;0.60;0.60;;;;;;;17.83;87.32;101444.69;5072022;28;20195;-72
2022/10/27 08:15:59;;;;;;;0.63;0.63;;;;;;;17.93;88.23;101436.03;5072052;28;20214;-72
2022/10/27 08:18:26;;;;;;;0.60;0.60;;;;;;;17.83;88.02;101439.47;5053274;28;20281;-72
2022/10/27 08:20:52;;;;;;;0.60;0.60;;;;;;;17.67;87.67;101434.94;5071864;28;20198;-72
2022/10/27 08:23:24;;;;;;;0.63;0.63;;;;;;;17.94;87.54;101424.66;5071840;28;20210;-72
2022/10/27 08:25:51;;;;;;;0.60;0.60;;;;;;;17.78;87.62;101433.28;5071768;28;20298;-72
2022/10/27 08:28:18;;;;;;;0.60;0.60;;;;;;;17.63;88.14;101443.66;5071720;28;20198;-73
2022/10/27 08:30:45;;;;;;;0.63;0.63;;;;;;;17.81;88.35;101439.44;5071609;28;20230;-71
2022/10/27 08:33:13;;;;;;;0.60;0.60;;;;;;;17.91;86.97;101408.88;5071706;28;20203;-72
2022/10/27 08:35:40;;;;;;;0.70;0.70;;;;;;;18.09;86.67;101431.72;5071475;28;20238;-71
2022/10/27 08:38:10;;;;;;;1.08;1.08;;;;;;;18.00;86.65;101392.31;5071279;28;20246;-72
2022/10/27 08:40:45;;;;;;;0.77;0.77;;;;;;;18.01;86.80;101400.22;5071807;28;20199;-71
2022/10/27 08:43:31;;;;;;;0.60;0.60;;;;;;;18.22;85.64;101415.19;5071723;28;20206;-72
2022/10/27 08:46:02;;;;;;;0.60;0.60;;;;;;;18.51;84.47;101428.50;5071493;28;20195;-72
2022/10/27 08:48:32;;;;;;;0.60;0.60;;;;;;;18.53;83.39;101411.88;5071287;28;20215;-72
2022/10/27 08:51:01;;;;;;;0.60;0.60;;;;;;;18.58;82.81;101430.28;5070892;28;20706;-72
2022/10/27 08:53:33;;;;;;;0.60;0.60;;;;;;;18.69;83.00;101432.03;5071088;28;20701;-72
2022/10/27 08:56:06;;;;;;;0.80;0.80;;;;;;;18.90;82.39;101440.91;5071216;28;20210;-71
2022/10/27 08:58:39;;;;;;;0.60;0.60;;;;;;;18.97;80.96;101437.41;5071098;28;20206;-72
2022/10/27 09:01:20;;;;;;;0.70;0.70;;;;;;;18.59;80.60;101353.19;5071398;28;20297;-72
2022/10/27 09:04:11;;;;;;;0.65;0.65;;;;;;;19.17;79.40;101441.81;5070930;28;20202;-72
2022/10/27 09:06:46;;;;;;;1.15;1.15;;;;;;;18.89;78.93;101432.13;5070816;28;20207;-72
2022/10/27 09:09:22;;;;;;;0.70;0.70;;;;;;;18.95;78.57;101445.28;5070744;28;20209;-72
2022/10/27 09:11:58;;;;;;;0.68;0.68;;;;;;;19.14;77.28;101422.53;5070968;28;20287;-72
2022/10/27 09:14:48;;;;;;;0.60;0.60;;;;;;;19.22;77.35;101433.97;5070747;28;20682;-72
2022/10/27 09:17:20;;;;;;;0.80;0.80;;;;;;;19.15;78.56;101435.69;5070510;28;20195;-72
2022/10/27 09:19:52;;;;;;;0.75;0.75;;;;;;;19.19;77.93;101405.88;5070796;28;20231;-72
2022/10/27 09:22:21;;;;;;;0.60;0.60;;;;;;;19.61;77.08;101436.63;5070656;28;20911;-72
2022/10/27 09:24:55;;;;;;;0.68;0.68;;;;;;;19.45;77.38;101415.56;5071008;28;20645;-72
2022/10/27 09:27:23;;;;;;;0.60;0.60;;;;;;;19.65;76.52;101430.50;5070621;28;20202;-72
2022/10/27 09:29:51;;;;;;;0.70;0.70;;;;;;;19.63;74.53;101413.81;5070463;28;20213;-72
2022/10/27 09:32:23;;;;;;;0.60;0.60;;;;;;;19.76;72.68;101441.03;5070486;28;20229;-72
2022/10/27 09:35:00;;;;;;;0.80;0.80;;;;;;;19.95;70.85;101426.94;5070433;28;20206;-72
2022/10/27 09:37:28;;;;;;;0.60;0.60;;;;;;;19.93;70.63;101423.44;5069953;28;20190;-73
2022/10/27 09:39:56;;;;;;;0.70;0.70;;;;;;;20.05;69.32;101425.16;5070568;28;20195;-73
2022/10/27 09:42:25;;;;;;;0.80;0.80;;;;;;;20.15;69.08;101430.44;5070244;28;20724;-72
2022/10/27 09:44:56;;;;;;;0.60;0.60;;;;;;;20.26;68.63;101404.91;5070382;28;20199;-72
2022/10/27 09:47:24;;;;;;;0.70;0.70;;;;;;;20.30;68.62;101399.69;5070447;28;20202;-72
2022/10/27 09:49:53;;;;;;;0.60;0.60;;;;;;;20.55;67.62;101415.34;5034227;28;20702;-72
2022/10/27 09:52:24;;;;;;;0.60;0.60;;;;;;;20.45;67.02;101418.03;5051247;28;20250;-72
2022/10/27 09:54:52;;;;;;;0.50;0.50;;;;;;;20.51;66.46;101400.44;5070031;28;20202;-72
2022/10/27 09:57:22;;;;;;;0.60;0.60;;;;;;;20.22;65.85;101337.34;5070036;28;20590;-72
2022/10/27 09:59:52;;;;;;;1.98;1.88;;;;;;;20.76;65.31;101420.53;5070158;28;20673;-72
2022/10/27 10:02:25;;;;;;;0.50;0.50;;;;;;;20.74;65.24;101395.06;5070324;28;20237;-72
2022/10/27 10:04:54;;;;;;;0.63;0.63;;;;;;;20.86;64.59;101388.84;5070135;28;20206;-72
2022/10/27 10:07:31;;;;;;;0.60;0.60;;;;;;;20.90;63.04;101385.31;5069915;28;20210;-74
2022/10/27 10:10:06;;;;;;;1.20;1.15;;;;;;;20.99;63.39;101388.75;5070031;28;20224;-72
2022/10/27 10:12:33;;;;;;;0.60;0.60;;;;;;;21.15;62.68;101403.59;5052006;28;20644;-73
2022/10/27 10:15:18;;;;;;;0.70;0.70;;;;;;;21.34;61.46;101409.63;5069936;28;20203;-73
2022/10/27 10:17:53;;;;;;;0.60;0.60;;;;;;;21.48;61.46;101401.59;5069927;28;20243;-73
2022/10/27 10:20:40;;;;;;;0.70;0.70;;;;;;;21.50;60.72;101400.72;5069925;28;20206;-73
2022/10/27 10:23:19;;;;;;;0.70;0.70;;;;;;;21.46;60.99;101401.63;5070206;28;20285;-73
2022/10/27 10:25:48;;;;;;;0.60;0.60;;;;;;;21.42;61.31;101404.28;5069972;28;20237;-74
2022/10/27 10:28:23;;;;;;;1.00;1.00;;;;;;;21.57;60.34;101401.53;5069696;28;20195;-74
2022/10/27 10:30:53;;;;;;;0.60;0.60;;;;;;;21.47;60.47;101400.75;5051876;28;20194;-74
2022/10/27 10:33:24;;;;;;;0.60;0.60;;;;;;;21.30;59.89;101385.94;5070076;28;20194;-74
2022/10/27 10:35:54;;;;;;;0.60;0.60;;;;;;;21.52;59.88;101366.38;5069915;28;20206;-72
2022/10/27 10:38:28;;;;;;;0.60;0.60;;;;;;;21.84;59.69;101390.69;5069590;28;20289;-72
2022/10/27 10:41:06;;;;;;;1.60;1.50;;;;;;;21.48;58.83;101367.28;5069720;28;20216;-74
2022/10/27 10:43:33;;;;;;;0.77;0.77;;;;;;;21.50;58.83;101397.19;5069657;28;20202;-72
2022/10/27 10:46:00;;;;;;;0.60;0.60;;;;;;;21.58;58.08;101371.63;5069657;28;20686;-74
2022/10/27 10:48:31;;;;;;;0.70;0.70;;;;;;;21.85;57.48;101381.91;5067435;28;20757;-74
2022/10/27 10:51:00;;;;;;;0.70;0.70;;;;;;;21.96;56.57;101389.72;5069583;28;20258;-72
2022/10/27 10:53:31;;;;;;;0.60;0.60;;;;;;;22.15;55.44;101384.22;5069746;28;20209;-74
2022/10/27 10:56:02;;;;;;;0.68;0.68;;;;;;;22.28;54.58;101381.44;5069538;28;20633;-73
2022/10/27 10:58:31;;;;;;;0.60;0.60;;;;;;;21.80;52.37;101298.31;5069715;28;20249;-73
2022/10/27 11:01:00;;;;;;;0.60;0.60;;;;;;;22.32;51.80;101357.59;5069617;28;20202;-73
2022/10/27 11:03:33;;;;;;;0.60;0.60;;;;;;;22.49;51.19;101375.88;5073314;28;20221;-73
2022/10/27 11:06:03;;;;;;;0.50;0.50;;;;;;;22.43;50.50;101361.00;5073043;28;20666;-73
2022/10/27 11:08:36;;;;;;;0.60;0.60;;;;;;;22.64;50.82;101370.38;5073402;28;20191;-73
2022/10/27 11:11:06;;;;;;;0.60;0.60;;;;;;;22.55;50.77;101371.38;5073267;28;20210;-73
2022/10/27 11:13:40;;;;;;;0.60;0.60;;;;;;;22.44;50.34;101319.56;5038275;28;20203;-74
2022/10/27 11:16:10;;;;;;;1.48;1.48;;;;;;;22.76;50.32;101364.94;5072981;28;20199;-73
2022/10/27 11:18:47;;;;;;;0.70;0.70;;;;;;;22.99;49.51;101357.56;5073125;28;20217;-74
2022/10/27 11:21:25;;;;;;;0.60;0.60;;;;;;;23.04;49.68;101361.00;5073412;28;20209;-72
2022/10/27 11:23:56;;;;;;;0.52;0.52;;;;;;;22.92;49.34;101360.31;5072994;28;20201;-71
2022/10/27 11:26:28;;;;;;;0.70;0.70;;;;;;;23.05;49.52;101356.56;5072842;28;20199;-74
2022/10/27 11:29:01;;;;;;;0.60;0.60;;;;;;;22.85;48.77;101321.63;5072652;28;20210;-72